createdAt,value
2022-09-14T00:01:50.952Z,22.50
2022-09-14T00:04:20.959Z,22.40
2022-09-14T00:06:52.251Z,22.00
2022-09-14T00:09:23.531Z,21.50
2022-09-14T00:11:53.040Z,19.60
2022-09-14T00:14:22.713Z,21.20
2022-09-14T00:16:55.380Z,20.60
2022-09-14T00:19:28.182Z,21.20
2022-09-14T00:22:00.959Z,17.10
2022-09-14T00:24:31.343Z,19.50
2022-09-14T00:27:00.219Z,18.00
2022-09-14T00:29:31.035Z,18.90
2022-09-14T00:32:00.235Z,17.50
2022-09-14T00:34:29.327Z,18.80
2022-09-14T00:36:58.447Z,17.50
2022-09-14T00:39:29.072Z,19.50
2022-09-14T00:41:58.994Z,17.90
2022-09-14T00:44:28.853Z,19.40
2022-09-14T00:47:01.068Z,20.60
2022-09-14T00:49:36.062Z,18.20
2022-09-14T00:52:09.524Z,19.00
2022-09-14T00:54:50.507Z,18.70
2022-09-14T00:57:21.116Z,18.20
2022-09-14T00:59:52.511Z,19.80
2022-09-14T01:02:26.264Z,19.60
2022-09-14T01:04:56.303Z,18.60
2022-09-14T01:08:15.854Z,18.70
2022-09-14T01:11:02.414Z,19.60
2022-09-14T01:13:37.913Z,20.40
2022-09-14T01:16:25.539Z,18.70
2022-09-14T01:19:11.259Z,20.10
2022-09-14T01:21:44.736Z,17.10
2022-09-14T01:24:27.091Z,15.50
2022-09-14T01:27:29.670Z,19.30
2022-09-14T01:30:25.313Z,16.90
2022-09-14T01:33:14.218Z,18.90
2022-09-14T01:35:56.792Z,19.40
2022-09-14T01:38:35.786Z,19.20
2022-09-14T01:41:10.336Z,18.50
2022-09-14T01:43:54.494Z,18.60
2022-09-14T01:46:30.524Z,18.10
2022-09-14T01:49:28.454Z,19.50
2022-09-14T01:52:09.030Z,17.70
2022-09-14T01:54:43.614Z,18.90
2022-09-14T01:57:27.656Z,18.70
2022-09-14T02:00:02.304Z,18.10
2022-09-14T02:02:40.084Z,18.10
2022-09-14T02:05:15.080Z,18.90
2022-09-14T02:08:12.496Z,20.00
2022-09-14T02:10:42.124Z,18.60
2022-09-14T02:13:14.460Z,19.70
2022-09-14T02:15:43.178Z,18.90
2022-09-14T02:18:12.134Z,17.40
2022-09-14T02:21:00.923Z,19.90
2022-09-14T02:23:29.786Z,19.10
2022-09-14T02:25:59.542Z,19.00
2022-09-14T02:28:29.477Z,18.20
2022-09-14T02:31:19.246Z,18.80
2022-09-14T02:34:15.854Z,17.70
2022-09-14T02:37:03.624Z,14.90
2022-09-14T02:40:20.455Z,17.50
2022-09-14T02:43:06.458Z,17.80
2022-09-14T02:46:00.146Z,18.20
2022-09-14T02:49:23.046Z,17.60
2022-09-14T02:52:11.060Z,19.40
2022-09-14T02:55:08.484Z,18.00
2022-09-14T02:58:00.890Z,18.00
2022-09-14T03:00:32.474Z,17.30
2022-09-14T03:03:01.408Z,18.10
2022-09-14T03:05:31.732Z,18.60
2022-09-14T03:08:03.418Z,16.90
2022-09-14T03:10:34.299Z,20.20
2022-09-14T03:13:04.385Z,16.60
2022-09-14T03:15:33.814Z,19.40
2022-09-14T03:18:04.824Z,17.60
2022-09-14T03:20:36.826Z,17.60
2022-09-14T03:23:09.454Z,15.70
2022-09-14T03:25:40.377Z,17.20
2022-09-14T03:28:10.130Z,18.90
2022-09-14T03:30:40.821Z,17.90
2022-09-14T03:33:11.480Z,20.10
2022-09-14T03:35:40.164Z,18.30
2022-09-14T03:38:08.908Z,16.80
2022-09-14T03:40:39.405Z,18.50
2022-09-14T03:43:09.336Z,17.60
2022-09-14T03:45:40.927Z,18.50
2022-09-14T03:48:11.832Z,19.90
2022-09-14T03:50:43.916Z,18.00
2022-09-14T03:53:13.636Z,17.30
2022-09-14T03:55:42.278Z,17.30
2022-09-14T03:58:10.926Z,16.10
2022-09-14T04:00:45.545Z,16.50
2022-09-14T04:03:15.560Z,16.60
2022-09-14T04:05:55.686Z,17.30
2022-09-14T04:08:26.102Z,16.00
2022-09-14T04:10:56.301Z,18.20
2022-09-14T04:13:26.118Z,16.90
2022-09-14T04:16:03.515Z,18.50
2022-09-14T04:18:35.375Z,17.90
2022-09-14T04:21:08.431Z,18.70
2022-09-14T04:23:56.683Z,16.80
2022-09-14T04:26:30.272Z,16.20
2022-09-14T04:28:59.670Z,16.60
2022-09-14T04:31:29.869Z,15.90
2022-09-14T04:33:59.513Z,14.70
2022-09-14T04:36:31.552Z,15.10
2022-09-14T04:39:03.248Z,16.30
2022-09-14T04:41:33.656Z,13.80
2022-09-14T04:44:04.624Z,14.30
2022-09-14T04:46:43.636Z,15.10
2022-09-14T04:49:19.242Z,17.20
2022-09-14T04:51:54.386Z,16.20
2022-09-14T04:54:22.994Z,15.00
2022-09-14T04:56:51.693Z,13.40
2022-09-14T04:59:20.372Z,15.60
2022-09-14T05:01:50.543Z,14.80
2022-09-14T05:04:21.642Z,18.60
2022-09-14T05:06:53.918Z,14.20
2022-09-14T05:09:24.529Z,16.90
2022-09-14T05:11:55.015Z,15.30
2022-09-14T05:14:25.520Z,14.80
2022-09-14T05:17:01.725Z,15.60
2022-09-14T05:19:34.427Z,13.40
2022-09-14T05:22:03.107Z,12.20
2022-09-14T05:24:31.846Z,14.10
2022-09-14T05:27:02.313Z,17.90
2022-09-14T05:29:32.287Z,26.20
2022-09-14T05:32:04.382Z,17.10
2022-09-14T05:34:33.880Z,17.30
2022-09-14T05:37:02.996Z,15.00
2022-09-14T05:39:31.840Z,13.70
2022-09-14T05:42:00.604Z,12.70
2022-09-14T05:44:31.319Z,14.40
2022-09-14T05:47:00.402Z,13.60
2022-09-14T05:49:29.814Z,22.60
2022-09-14T05:51:59.101Z,15.10
2022-09-14T05:54:30.125Z,15.00
2022-09-14T05:56:59.786Z,12.10
2022-09-14T05:59:32.028Z,12.20
2022-09-14T06:02:00.758Z,11.90
2022-09-14T06:04:29.654Z,12.70
2022-09-14T06:07:17.463Z,11.90
2022-09-14T06:09:48.699Z,12.50
2022-09-14T06:12:20.558Z,11.80
2022-09-14T06:14:49.907Z,11.80
2022-09-14T06:17:18.523Z,12.50
2022-09-14T06:19:47.201Z,11.50
2022-09-14T06:22:16.742Z,11.20
2022-09-14T06:24:47.907Z,11.20
2022-09-14T06:27:18.268Z,10.30
2022-09-14T06:29:52.638Z,9.50
2022-09-14T06:32:24.198Z,8.90
2022-09-14T06:34:53.107Z,10.20
2022-09-14T06:37:21.871Z,8.10
2022-09-14T06:39:52.034Z,7.60
2022-09-14T06:42:22.751Z,7.90
2022-09-14T06:44:54.593Z,8.00
2022-09-14T06:47:24.313Z,10.80
2022-09-14T06:49:53.586Z,10.10
2022-09-14T06:52:22.441Z,10.60
2022-09-14T06:54:51.112Z,9.20
2022-09-14T06:57:19.863Z,8.60
2022-09-14T06:59:49.315Z,8.40
2022-09-14T07:02:19.222Z,8.00
2022-09-14T07:04:47.834Z,7.20
2022-09-14T07:07:16.980Z,7.50
2022-09-14T07:09:46.858Z,7.00
2022-09-14T07:12:15.504Z,6.20
2022-09-14T07:14:45.957Z,7.40
2022-09-14T07:17:17.035Z,14.30
2022-09-14T07:19:45.573Z,11.90
2022-09-14T07:22:14.126Z,6.70
2022-09-14T07:24:48.060Z,7.00
2022-09-14T07:27:17.578Z,11.00
2022-09-14T07:29:46.332Z,11.70
2022-09-14T07:32:17.236Z,8.00
2022-09-14T07:34:47.102Z,5.80
2022-09-14T07:37:16.058Z,8.50
2022-09-14T07:39:45.933Z,9.30
2022-09-14T07:42:17.176Z,6.40
2022-09-14T07:44:46.844Z,5.40
2022-09-14T07:47:15.450Z,6.40
2022-09-14T07:49:44.216Z,5.40
2022-09-14T07:52:12.884Z,5.10
2022-09-14T07:54:42.323Z,5.00
2022-09-14T07:57:11.808Z,6.10
2022-09-14T07:59:40.670Z,4.70
2022-09-14T08:02:11.985Z,5.90
2022-09-14T08:04:43.178Z,8.00
2022-09-14T08:07:11.856Z,7.30
2022-09-14T08:09:44.372Z,4.80
2022-09-14T08:12:16.530Z,3.80
2022-09-14T08:14:46.271Z,7.10
2022-09-14T08:17:17.219Z,4.80
2022-09-14T08:19:46.728Z,3.40
2022-09-14T08:22:15.336Z,2.90
2022-09-14T08:24:44.501Z,2.60
2022-09-14T08:27:17.137Z,2.70
2022-09-14T08:29:45.985Z,3.90
2022-09-14T08:32:14.584Z,8.50
2022-09-14T08:34:43.427Z,4.90
2022-09-14T08:37:14.298Z,3.50
2022-09-14T08:39:43.136Z,5.00
2022-09-14T08:42:17.782Z,3.30
2022-09-14T08:44:56.954Z,3.90
2022-09-14T08:47:40.218Z,4.60
2022-09-14T08:50:18.293Z,4.10
2022-09-14T08:52:49.686Z,3.30
2022-09-14T08:55:18.245Z,2.70
2022-09-14T08:58:05.601Z,2.30
2022-09-14T09:00:43.180Z,3.10
2022-09-14T09:03:11.762Z,2.40
2022-09-14T09:06:00.569Z,2.50
2022-09-14T09:08:37.729Z,2.90
2022-09-14T09:11:15.646Z,2.80
2022-09-14T09:13:45.747Z,2.50
2022-09-14T09:16:20.215Z,3.50
2022-09-14T09:19:12.542Z,2.40
2022-09-14T09:21:45.857Z,2.10
2022-09-14T09:24:19.994Z,2.90
2022-09-14T09:29:17.439Z,3.20
2022-09-14T09:32:08.780Z,2.20
2022-09-14T09:34:56.439Z,2.20
2022-09-14T09:37:40.313Z,1.70
2022-09-14T09:40:23.873Z,1.90
2022-09-14T09:43:33.629Z,1.50
2022-09-14T09:46:08.828Z,1.40
2022-09-14T09:48:46.179Z,1.40
2022-09-14T09:51:35.338Z,1.40
2022-09-14T09:54:13.175Z,1.80
2022-09-14T09:57:07.372Z,1.90
2022-09-14T09:59:41.312Z,2.00
2022-09-14T10:02:35.139Z,1.40
2022-09-14T10:05:29.343Z,2.60
2022-09-14T10:08:14.803Z,2.00
2022-09-14T10:10:45.081Z,2.30
2022-09-14T10:13:29.744Z,2.80
2022-09-14T10:16:09.386Z,2.10
2022-09-14T10:18:48.250Z,1.80
2022-09-14T10:21:24.824Z,2.40
2022-09-14T10:24:16.556Z,1.80
2022-09-14T10:26:50.195Z,1.80
2022-09-14T10:29:35.604Z,1.80
2022-09-14T10:32:24.434Z,1.80
2022-09-14T10:34:53.737Z,1.60
2022-09-14T10:37:41.106Z,1.90
2022-09-14T10:40:40.258Z,1.90
2022-09-14T10:43:11.787Z,1.40
2022-09-14T10:45:47.938Z,1.60
2022-09-14T10:48:34.434Z,1.80
2022-09-14T10:51:23.741Z,3.10
2022-09-14T10:54:05.538Z,1.40
2022-09-14T10:56:50.303Z,0.90
2022-09-14T10:59:49.566Z,1.30
2022-09-14T11:02:31.206Z,1.20
2022-09-14T11:05:15.058Z,1.10
2022-09-14T11:08:06.498Z,2.20
2022-09-14T11:11:11.357Z,1.70
2022-09-14T11:14:19.586Z,1.10
2022-09-14T11:17:34.543Z,1.00
2022-09-14T11:20:42.578Z,1.20
2022-09-14T11:23:51.500Z,1.00
2022-09-14T11:26:39.168Z,1.20
2022-09-14T11:29:24.217Z,1.30
2022-09-14T11:32:19.916Z,1.10
2022-09-14T11:35:18.518Z,1.10
2022-09-14T11:38:18.853Z,0.90
2022-09-14T11:40:56.545Z,1.10
2022-09-14T11:43:31.684Z,1.30
2022-09-14T11:46:34.299Z,1.50
2022-09-14T11:49:36.907Z,1.20
2022-09-14T11:52:21.232Z,0.90
2022-09-14T11:54:51.910Z,1.60
2022-09-14T11:57:28.948Z,1.00
2022-09-14T12:00:10.445Z,1.40
2022-09-14T12:02:41.144Z,1.50
2022-09-14T12:05:11.238Z,1.20
2022-09-14T12:07:47.758Z,1.60
2022-09-14T12:10:22.558Z,1.40
2022-09-14T12:13:07.109Z,1.30
2022-09-14T12:15:37.657Z,2.20
2022-09-14T12:18:07.163Z,1.50
2022-09-14T12:20:39.468Z,1.80
2022-09-14T12:23:21.149Z,1.40
2022-09-14T12:26:01.356Z,2.50
2022-09-14T12:28:36.347Z,1.20
2022-09-14T12:31:04.926Z,1.20
2022-09-14T12:33:34.979Z,1.40
2022-09-14T12:36:27.045Z,1.50
2022-09-14T12:39:00.487Z,1.60
2022-09-14T12:41:29.668Z,1.50
2022-09-14T12:43:58.195Z,1.30
2022-09-14T12:46:37.025Z,1.00
2022-09-14T12:49:27.263Z,2.30
2022-09-14T12:51:58.182Z,3.70
2022-09-14T12:54:40.875Z,1.60
2022-09-14T12:57:31.317Z,1.10
2022-09-14T13:00:30.318Z,1.70
2022-09-14T13:03:22.329Z,1.60
2022-09-14T13:05:52.981Z,1.40
2022-09-14T13:08:25.177Z,1.40
2022-09-14T13:10:54.792Z,1.50
2022-09-14T13:13:30.792Z,1.40
2022-09-14T13:16:03.932Z,1.30
2022-09-14T13:18:37.631Z,1.30
2022-09-14T13:21:23.089Z,1.60
2022-09-14T13:23:52.479Z,1.40
2022-09-14T13:26:33.781Z,1.90
2022-09-14T13:29:09.720Z,1.40
2022-09-14T13:31:40.374Z,1.80
2022-09-14T13:34:20.240Z,1.10
2022-09-14T13:36:49.891Z,0.90
2022-09-14T13:39:27.952Z,1.20
2022-09-14T13:41:59.263Z,1.10
2022-09-14T13:44:34.455Z,1.30
2022-09-14T13:47:06.092Z,1.10
2022-09-14T13:49:36.659Z,1.30
2022-09-14T13:53:01.156Z,1.70
2022-09-14T13:55:35.763Z,1.00
2022-09-14T13:58:10.195Z,2.10
2022-09-14T14:00:56.865Z,1.80
2022-09-14T14:03:37.291Z,1.40
2022-09-14T14:06:35.204Z,1.30
2022-09-14T14:09:11.733Z,1.80
2022-09-14T14:11:46.326Z,1.10
2022-09-14T14:14:21.201Z,1.40
2022-09-14T14:17:31.064Z,1.90
2022-09-14T14:20:22.387Z,1.20
2022-09-14T14:23:23.506Z,1.30
2022-09-14T14:26:06.848Z,1.80
2022-09-14T14:28:35.529Z,1.80
2022-09-14T14:31:08.722Z,1.40
2022-09-14T14:36:15.392Z,1.50
2022-09-14T14:38:47.364Z,2.00
2022-09-14T14:41:21.712Z,2.10
2022-09-14T14:46:22.988Z,2.60
2022-09-14T14:48:52.613Z,1.40
2022-09-14T14:51:23.481Z,1.60
2022-09-14T14:53:54.649Z,1.90
2022-09-14T14:56:24.770Z,2.20
2022-09-14T14:58:57.791Z,2.20
2022-09-14T15:01:31.353Z,1.50
2022-09-14T15:04:00.308Z,1.60
2022-09-14T15:06:29.362Z,1.90
2022-09-14T15:09:31.156Z,2.00
2022-09-14T15:12:00.132Z,1.80
2022-09-14T15:14:29.663Z,1.50
2022-09-14T15:17:00.560Z,1.40
2022-09-14T15:19:30.706Z,1.60
2022-09-14T15:22:02.197Z,2.40
2022-09-14T15:24:30.840Z,5.10
2022-09-14T15:26:59.950Z,2.50
2022-09-14T15:29:29.745Z,3.90
2022-09-14T15:31:59.137Z,2.70
2022-09-14T15:34:29.628Z,2.60
2022-09-14T15:36:59.717Z,3.00
2022-09-14T15:39:31.781Z,3.00
2022-09-14T15:42:00.748Z,3.50
2022-09-14T15:44:31.391Z,3.10
2022-09-14T15:47:00.112Z,2.30
2022-09-14T15:49:29.225Z,2.50
2022-09-14T15:52:01.459Z,2.90
2022-09-14T15:54:37.436Z,2.90
2022-09-14T15:57:08.454Z,2.90
2022-09-14T15:59:40.003Z,3.20
2022-09-14T16:02:12.546Z,3.60
2022-09-14T16:04:43.409Z,3.50
2022-09-14T16:07:14.620Z,3.80
2022-09-14T16:09:43.909Z,3.40
2022-09-14T16:12:13.931Z,4.50
2022-09-14T16:14:43.023Z,4.00
2022-09-14T16:17:12.195Z,4.30
2022-09-14T16:19:41.741Z,6.40
2022-09-14T16:22:10.750Z,4.60
2022-09-14T16:24:39.548Z,4.60
2022-09-14T16:27:08.527Z,4.50
2022-09-14T16:29:37.728Z,4.10
2022-09-14T16:32:10.483Z,3.40
2022-09-14T16:34:39.466Z,4.00
2022-09-14T16:37:09.767Z,4.40
2022-09-14T16:39:41.682Z,13.00
2022-09-14T16:42:10.823Z,12.00
2022-09-14T16:44:41.475Z,30.60
2022-09-14T16:47:11.767Z,4.60
2022-09-14T16:49:42.645Z,9.90
2022-09-14T16:52:12.159Z,17.20
2022-09-14T16:54:42.074Z,24.50
2022-09-14T16:57:11.315Z,32.10
2022-09-14T16:59:42.048Z,18.10
2022-09-14T17:02:12.210Z,7.30
2022-09-14T17:04:42.813Z,5.90
2022-09-14T17:07:12.211Z,5.50
2022-09-14T17:09:42.120Z,6.40
2022-09-14T17:12:12.090Z,6.70
2022-09-14T17:14:41.443Z,9.50
2022-09-14T17:17:12.119Z,14.80
2022-09-14T17:19:43.902Z,10.00
2022-09-14T17:22:13.976Z,9.80
2022-09-14T17:24:43.113Z,10.50
2022-09-14T17:27:13.262Z,10.40
2022-09-14T17:29:42.917Z,49.70
2022-09-14T17:32:15.198Z,13.90
2022-09-14T17:34:46.299Z,22.80
2022-09-14T17:37:17.307Z,19.70
2022-09-14T17:39:49.258Z,76.50
2022-09-14T17:42:20.501Z,18.40
2022-09-14T17:44:49.471Z,8.10
2022-09-14T17:47:22.647Z,7.70
2022-09-14T17:49:51.424Z,5.90
2022-09-14T17:52:21.903Z,7.70
2022-09-14T17:54:52.303Z,8.10
2022-09-14T17:57:21.437Z,6.50
2022-09-14T17:59:53.003Z,7.00
2022-09-14T18:02:22.712Z,8.30
2022-09-14T18:04:53.944Z,7.60
2022-09-14T18:07:25.284Z,8.50
2022-09-14T18:09:57.961Z,11.90
2022-09-14T18:12:27.522Z,8.70
2022-09-14T18:14:59.992Z,7.80
2022-09-14T18:17:29.115Z,7.30
2022-09-14T18:19:59.486Z,7.20
2022-09-14T18:22:30.285Z,8.10
2022-09-14T18:25:00.224Z,39.10
2022-09-14T18:27:31.783Z,40.00
2022-09-14T18:30:03.986Z,7.60
2022-09-14T18:32:37.363Z,44.40
2022-09-14T18:35:13.611Z,12.30
2022-09-14T18:37:42.721Z,5.30
2022-09-14T18:40:15.249Z,5.30
2022-09-14T18:42:49.899Z,5.50
2022-09-14T18:45:22.464Z,6.60
2022-09-14T18:47:53.737Z,6.60
2022-09-14T18:50:26.044Z,7.70
2022-09-14T18:52:58.176Z,8.00
2022-09-14T18:55:28.383Z,7.50
2022-09-14T18:58:03.678Z,12.90
2022-09-14T19:00:34.289Z,6.80
2022-09-14T19:03:04.500Z,6.10
2022-09-14T19:05:39.469Z,7.80
2022-09-14T19:08:14.393Z,6.00
2022-09-14T19:10:47.024Z,6.90
2022-09-14T19:13:18.080Z,15.20
2022-09-14T19:15:49.335Z,21.50
2022-09-14T19:18:19.838Z,17.70
2022-09-14T19:21:05.931Z,11.00
2022-09-14T19:23:37.784Z,47.40
2022-09-14T19:26:17.675Z,28.30
2022-09-14T19:28:49.266Z,8.20
2022-09-14T19:31:21.933Z,31.30
2022-09-14T19:33:55.834Z,44.90
2022-09-14T19:36:29.302Z,27.20
2022-09-14T19:39:02.829Z,18.80
2022-09-14T19:41:36.844Z,8.40
2022-09-14T19:44:10.580Z,60.30
2022-09-14T19:46:42.256Z,27.80
2022-09-14T19:49:18.842Z,65.80
2022-09-14T19:51:49.644Z,16.40
2022-09-14T19:54:19.722Z,7.30
2022-09-14T19:56:49.841Z,7.10
2022-09-14T19:59:19.626Z,10.60
2022-09-14T20:01:51.710Z,6.20
2022-09-14T20:04:24.456Z,7.30
2022-09-14T20:06:56.215Z,42.30
2022-09-14T20:10:17.435Z,47.80
2022-09-14T20:12:47.938Z,68.40
2022-09-14T20:15:17.773Z,6.90
2022-09-14T20:17:48.902Z,7.30
2022-09-14T20:20:19.439Z,7.50
2022-09-14T20:22:51.779Z,6.60
2022-09-14T20:25:21.733Z,6.40
2022-09-14T20:27:51.715Z,8.20
2022-09-14T20:30:24.017Z,7.50
2022-09-14T20:32:53.343Z,7.20
2022-09-14T20:35:25.160Z,6.60
2022-09-14T20:37:53.914Z,7.60
2022-09-14T20:40:27.830Z,6.10
2022-09-14T20:42:56.830Z,7.70
2022-09-14T20:45:28.427Z,8.10
2022-09-14T20:47:57.744Z,8.10
2022-09-14T20:50:29.222Z,7.40
2022-09-14T20:52:58.911Z,8.00
2022-09-14T20:55:28.735Z,7.40
2022-09-14T20:57:59.483Z,6.40
2022-09-14T21:00:28.822Z,7.20
2022-09-14T21:02:59.069Z,7.80
2022-09-14T21:05:28.323Z,7.40
2022-09-14T21:08:47.866Z,7.10
2022-09-14T21:11:22.076Z,6.90
2022-09-14T21:13:53.833Z,7.80
2022-09-14T21:16:33.712Z,8.80
2022-09-14T21:19:08.925Z,7.10
2022-09-14T21:21:40.694Z,7.00
2022-09-14T21:24:13.652Z,6.40
2022-09-14T21:26:46.648Z,6.90
2022-09-14T21:29:20.667Z,7.30
2022-09-14T21:31:50.245Z,7.50
2022-09-14T21:34:21.542Z,7.80
2022-09-14T21:36:53.189Z,8.20
2022-09-14T21:39:28.628Z,6.30
2022-09-14T21:41:59.734Z,5.80
2022-09-14T21:44:32.833Z,6.40
2022-09-14T21:47:03.223Z,7.00
2022-09-14T21:49:35.916Z,6.90
2022-09-14T21:52:06.449Z,6.70
2022-09-14T21:54:35.366Z,7.10
2022-09-14T21:57:04.373Z,6.90
2022-09-14T21:59:34.995Z,6.70
2022-09-14T22:02:03.910Z,8.00
2022-09-14T22:04:34.258Z,6.10
2022-09-14T22:07:03.413Z,6.20
2022-09-14T22:09:33.232Z,7.10
2022-09-14T22:12:03.563Z,5.70
2022-09-14T22:14:33.528Z,8.00
2022-09-14T22:17:03.974Z,6.60
2022-09-14T22:19:35.110Z,6.80
2022-09-14T22:22:06.585Z,6.50
2022-09-14T22:24:39.188Z,7.20
2022-09-14T22:27:10.113Z,6.40
2022-09-14T22:29:41.694Z,7.10
2022-09-14T22:32:13.172Z,6.90
2022-09-14T22:34:49.607Z,7.90
2022-09-14T22:37:19.037Z,7.20
2022-09-14T22:39:47.926Z,6.20
2022-09-14T22:42:18.403Z,7.20
2022-09-14T22:44:48.397Z,6.50
2022-09-14T22:47:17.324Z,6.40
2022-09-14T22:49:46.856Z,7.30
2022-09-14T22:52:16.055Z,7.60
2022-09-14T22:54:45.132Z,5.70
2022-09-14T22:57:15.080Z,7.30
2022-09-14T22:59:44.072Z,8.40
2022-09-14T23:02:14.806Z,12.70
2022-09-14T23:04:45.696Z,6.60
2022-09-14T23:07:17.376Z,6.20
2022-09-14T23:09:47.136Z,8.70
2022-09-14T23:12:18.207Z,9.10
2022-09-14T23:14:48.979Z,8.10
2022-09-14T23:17:18.809Z,10.50
2022-09-14T23:19:49.194Z,8.90
2022-09-14T23:22:18.014Z,7.20
2022-09-14T23:24:47.743Z,7.20
2022-09-14T23:27:16.564Z,9.20
2022-09-14T23:29:45.406Z,7.10
2022-09-14T23:32:16.541Z,6.40
2022-09-14T23:34:45.737Z,6.40
2022-09-14T23:37:14.893Z,6.30
2022-09-14T23:39:43.797Z,7.00
2022-09-14T23:42:12.772Z,5.80
2022-09-14T23:44:44.414Z,6.00
2022-09-14T23:47:13.474Z,7.40
2022-09-14T23:49:43.667Z,7.30
2022-09-14T23:52:13.240Z,6.60
2022-09-14T23:54:43.293Z,6.80
2022-09-14T23:57:12.747Z,6.60
2022-09-14T23:59:41.489Z,6.10
